• Join FlightAware (Why Join?)
  • Login
  • US Flag 
04:01PM EDT


 

Airport Tracker/Info


-or-


 

Live Flight TrackerFlight Track Log ✈ C-GKPY ✈ 20-Sep-2013 ✈ CYAV - CYAV

Flight Track Log - Related Links

Times and Time Zones

All times are in EDT time to prevent confusion due to time zone crossing. See the C-GKPY flight status page for this flight to view local times or setup timezone preferences in your user account.

Time Position Orientation Groundspeed Altitude Reporting Facility
EDT Latitude Longitude Course Direction KTS MPH feet Rate Location/Type
01:37PM 50.0667 -97.0167 360° North 80 92 1,800  Level Winnipeg Center
01:38PM 50.0833 -97.0167 360° North 80 92 2,600 840 Climbing Winnipeg Center
01:39PM 50.1000 -97.0167 360° North 80 92 3,500 720 Climbing Winnipeg Center
01:40PM 50.0667 -97.0500 213° Southwest 130 150 4,100 300 Climbing Winnipeg Center
01:41PM 50.0333 -97.0500 180° South 150 173 4,100  Level Winnipeg Center
01:42PM 49.9833 -97.0500 180° South 150 173 4,100 300 Level Winnipeg Center
01:43PM 49.9500 -97.0500 180° South 140 161 4,700 480 Climbing Winnipeg Center
01:44PM 49.9167 -97.0000 136° Southeast 150 173 5,100 180 Climbing Winnipeg Center
01:45PM 49.9167 -96.9167 90° East 160 184 5,100 -60 Level Winnipeg Center
01:46PM 49.9000 -96.8667 117° Southeast 170 196 5,000 -300 Descending Winnipeg Center
01:47PM 49.8833 -96.7833 107° East 170 196 4,600 -300 Descending Winnipeg Center
01:48PM 49.8833 -96.7000 90° East 170 196 4,400 -300 Descending Winnipeg Center
01:49PM 49.8833 -96.6333 90° East 170 196 4,100 -240 Descending Winnipeg Center
01:50PM 49.8833 -96.5833 90° East 150 173 4,000 -60 Descending Winnipeg Center
01:51PM 49.9000 -96.5167 69° East 90 104 4,000  Level Winnipeg Center
01:52PM 49.9000 -96.5000 90° East 90 104 4,100  Climbing Winnipeg Center
01:53PM 49.9167 -96.4667 52° Northeast 100 115 4,100 -60 Level Winnipeg Center
01:54PM 49.9333 -96.5000 308° West 100 115 4,000  Descending Winnipeg Center
01:55PM 49.9667 -96.5167 342° North 100 115 4,100  Climbing Winnipeg Center
01:56PM 49.9833 -96.5500 308° West 130 150 4,000 -300 Descending Winnipeg Center
01:57PM 50.0000 -96.5000 63° Northeast 140 161 3,600 -240 Descending Winnipeg Center
01:58PM 49.9667 -96.4500 136° Southeast 150 173 3,600  Level Winnipeg Center
01:59PM 49.9500 -96.4500 180° South 70 81 3,600 -60 Level Winnipeg Center
02:00PM 49.9167 -96.4500 180° South 110 127 3,500 -60 Descending Winnipeg Center
02:01PM 49.9167 -96.4667 270° West 100 115 3,500 -60 Level Winnipeg Center
02:02PM 49.9333 -96.5167 297° West 80 92 3,400 -120 Descending Winnipeg Center
02:03PM 49.9500 -96.5167 360° North 90 104 3,300  Descending Winnipeg Center
02:04PM 49.9667 -96.5500 308° West 90 104 3,500 60 Climbing Winnipeg Center
02:05PM 49.9667 -96.6000 270° West 100 115 3,500  Level Winnipeg Center
02:06PM 49.9333 -96.6000 180° South 120 138 3,600  Climbing Winnipeg Center
02:07PM 49.9333 -96.5500 90° East 130 150 3,600 -60 Level Winnipeg Center
02:09PM 49.9167 -96.4167 101° East 120 138 3,500 -60 Descending Winnipeg Center
02:10PM 49.9333 -96.4667 297° West 120 138 3,500  Level Winnipeg Center
02:11PM 49.9333 -96.5167 270° West 100 115 3,500  Level Winnipeg Center
02:12PM 49.9167 -96.5500 232° Southwest 100 115 3,500 300 Level Winnipeg Center
02:13PM 49.9333 -96.6000 297° West 90 104 4,100 120 Climbing Winnipeg Center
02:14PM 49.9333 -96.5167 90° East 140 161 3,800 -300 Descending Winnipeg Center
02:15PM 49.9333 -96.5000 90° East 110 127 3,500 -60 Descending Winnipeg Center
02:16PM 49.9333 -96.4500 90° East 100 115 3,700 300 Climbing Winnipeg Center
02:17PM 49.9333 -96.4000 90° East 110 127 4,100 240 Climbing Winnipeg Center
02:18PM 49.9500 -96.4500 297° West 120 138 4,200 -180 Climbing Winnipeg Center
02:19PM 49.9500 -96.5000 270° West 100 115 3,800 -480 Descending Winnipeg Center
02:20PM 49.9500 -96.5167 270° West 80 92 3,300 -180 Descending Winnipeg Center
02:21PM 49.9500 -96.5500 270° West 80 92 3,500 180 Climbing Winnipeg Center
02:22PM 49.9500 -96.6000 270° West 90 104 3,700 120 Climbing Winnipeg Center
02:23PM 49.9500 -96.6333 270° West 110 127 3,800 -180 Climbing Winnipeg Center
02:24PM 49.9500 -96.6833 270° West 120 138 3,400 -120 Descending Winnipeg Center
02:25PM 49.9667 -96.7333 297° West 110 127 3,600  Climbing Winnipeg Center
02:26PM 49.9667 -96.7833 270° West 120 138 3,400 -360 Descending Winnipeg Center
02:27PM 49.9833 -96.8333 297° West 130 150 2,900 -420 Descending Winnipeg Center
02:28PM 49.9833 -96.8833 270° West 110 127 2,600 -360 Descending Winnipeg Center
02:29PM 49.9833 -96.9333 270° West 110 127 2,200 -360 Descending Winnipeg Center
02:30PM 49.9833 -96.9667 270° West 100 115 1,900 -300 Descending Winnipeg Center
02:31PM 50.0000 -97.0167 297° West 100 115 1,600 -300 Descending Winnipeg Center
02:32PM 50.0167 -97.0500 308° West 90 104 1,300 -360 Descending Winnipeg Center
02:33PM 50.0333 -97.0167 52° Northeast 80 92 900 -420 Descending Winnipeg Center